sensor_id;sensor_type;location;lat;lon;timestamp;temperature;humidity
18287;DHT22;9269;50.838;12.094;2023-05-29T00:00:22;18.10;28.70
18287;DHT22;9269;50.838;12.094;2023-05-29T00:02:50;18.00;28.60
18287;DHT22;9269;50.838;12.094;2023-05-29T00:05:19;18.00;29.00
18287;DHT22;9269;50.838;12.094;2023-05-29T00:07:50;18.00;28.50
18287;DHT22;9269;50.838;12.094;2023-05-29T00:10:18;18.00;28.70
18287;DHT22;9269;50.838;12.094;2023-05-29T00:12:47;17.90;28.70
18287;DHT22;9269;50.838;12.094;2023-05-29T00:15:15;17.80;28.90
18287;DHT22;9269;50.838;12.094;2023-05-29T00:17:44;17.70;28.50
18287;DHT22;9269;50.838;12.094;2023-05-29T00:20:13;17.70;28.80
18287;DHT22;9269;50.838;12.094;2023-05-29T00:22:41;17.70;28.80
18287;DHT22;9269;50.838;12.094;2023-05-29T00:25:11;17.70;28.80
18287;DHT22;9269;50.838;12.094;2023-05-29T00:27:39;17.70;28.90
18287;DHT22;9269;50.838;12.094;2023-05-29T00:30:08;17.50;28.70
18287;DHT22;9269;50.838;12.094;2023-05-29T00:32:37;17.50;28.60
18287;DHT22;9269;50.838;12.094;2023-05-29T00:35:06;17.50;29.00
18287;DHT22;9269;50.838;12.094;2023-05-29T00:37:35;17.50;29.30
18287;DHT22;9269;50.838;12.094;2023-05-29T00:40:05;17.50;29.10
18287;DHT22;9269;50.838;12.094;2023-05-29T00:42:36;17.40;28.90
18287;DHT22;9269;50.838;12.094;2023-05-29T00:45:05;17.40;29.40
18287;DHT22;9269;50.838;12.094;2023-05-29T00:47:34;17.30;29.00
18287;DHT22;9269;50.838;12.094;2023-05-29T00:50:04;17.30;29.20
18287;DHT22;9269;50.838;12.094;2023-05-29T00:52:33;17.20;29.90
18287;DHT22;9269;50.838;12.094;2023-05-29T00:55:01;17.40;30.20
18287;DHT22;9269;50.838;12.094;2023-05-29T00:57:33;17.30;29.80
18287;DHT22;9269;50.838;12.094;2023-05-29T01:00:05;17.30;30.00
18287;DHT22;9269;50.838;12.094;2023-05-29T01:02:36;17.30;29.80
18287;DHT22;9269;50.838;12.094;2023-05-29T01:05:05;17.20;29.60
18287;DHT22;9269;50.838;12.094;2023-05-29T01:07:34;17.20;30.10
18287;DHT22;9269;50.838;12.094;2023-05-29T01:10:03;17.10;30.00
18287;DHT22;9269;50.838;12.094;2023-05-29T01:12:36;17.10;30.20
18287;DHT22;9269;50.838;12.094;2023-05-29T01:15:24;17.10;30.10
18287;DHT22;9269;50.838;12.094;2023-05-29T01:18:05;17.10;29.90
18287;DHT22;9269;50.838;12.094;2023-05-29T01:20:40;17.00;30.30
18287;DHT22;9269;50.838;12.094;2023-05-29T01:23:24;17.00;29.70
18287;DHT22;9269;50.838;12.094;2023-05-29T01:26:09;17.00;29.90
18287;DHT22;9269;50.838;12.094;2023-05-29T01:28:44;16.90;30.30
18287;DHT22;9269;50.838;12.094;2023-05-29T01:31:16;16.90;30.20
18287;DHT22;9269;50.838;12.094;2023-05-29T01:33:52;17.00;30.20
18287;DHT22;9269;50.838;12.094;2023-05-29T01:36:21;16.80;30.00
18287;DHT22;9269;50.838;12.094;2023-05-29T01:38:51;16.90;30.20
18287;DHT22;9269;50.838;12.094;2023-05-29T01:41:21;16.80;30.80
18287;DHT22;9269;50.838;12.094;2023-05-29T01:43:52;16.90;30.30
18287;DHT22;9269;50.838;12.094;2023-05-29T01:46:21;16.90;30.80
18287;DHT22;9269;50.838;12.094;2023-05-29T01:48:53;16.80;30.90
18287;DHT22;9269;50.838;12.094;2023-05-29T01:51:22;16.70;31.30
18287;DHT22;9269;50.838;12.094;2023-05-29T01:53:51;16.70;31.50
18287;DHT22;9269;50.838;12.094;2023-05-29T01:56:19;16.70;31.50
18287;DHT22;9269;50.838;12.094;2023-05-29T01:58:50;16.70;31.20
18287;DHT22;9269;50.838;12.094;2023-05-29T02:01:19;16.70;31.30
18287;DHT22;9269;50.838;12.094;2023-05-29T02:03:48;16.60;31.20
18287;DHT22;9269;50.838;12.094;2023-05-29T02:06:17;16.50;31.30
18287;DHT22;9269;50.838;12.094;2023-05-29T02:08:46;16.60;31.20
18287;DHT22;9269;50.838;12.094;2023-05-29T02:11:15;16.50;31.80
18287;DHT22;9269;50.838;12.094;2023-05-29T02:13:43;16.50;31.70
18287;DHT22;9269;50.838;12.094;2023-05-29T02:16:13;16.50;31.40
18287;DHT22;9269;50.838;12.094;2023-05-29T02:18:42;16.40;31.30
18287;DHT22;9269;50.838;12.094;2023-05-29T02:21:11;16.40;31.20
18287;DHT22;9269;50.838;12.094;2023-05-29T02:23:40;16.40;31.50
18287;DHT22;9269;50.838;12.094;2023-05-29T02:26:08;16.40;32.00
18287;DHT22;9269;50.838;12.094;2023-05-29T02:28:37;16.40;32.60
18287;DHT22;9269;50.838;12.094;2023-05-29T02:31:06;16.40;32.90
18287;DHT22;9269;50.838;12.094;2023-05-29T02:33:36;16.30;33.10
18287;DHT22;9269;50.838;12.094;2023-05-29T02:36:04;16.30;33.10
18287;DHT22;9269;50.838;12.094;2023-05-29T02:38:39;16.30;32.70
18287;DHT22;9269;50.838;12.094;2023-05-29T02:41:08;16.30;32.50
18287;DHT22;9269;50.838;12.094;2023-05-29T02:43:36;16.20;32.30
18287;DHT22;9269;50.838;12.094;2023-05-29T02:46:04;16.20;32.20
18287;DHT22;9269;50.838;12.094;2023-05-29T02:48:33;16.20;33.00
18287;DHT22;9269;50.838;12.094;2023-05-29T02:51:03;16.20;32.90
18287;DHT22;9269;50.838;12.094;2023-05-29T02:53:31;16.10;32.50
18287;DHT22;9269;50.838;12.094;2023-05-29T02:56:00;16.20;32.10
18287;DHT22;9269;50.838;12.094;2023-05-29T02:58:29;16.00;32.10
18287;DHT22;9269;50.838;12.094;2023-05-29T03:00:57;16.00;31.90
18287;DHT22;9269;50.838;12.094;2023-05-29T03:03:28;16.00;32.20
18287;DHT22;9269;50.838;12.094;2023-05-29T03:05:56;16.00;32.10
18287;DHT22;9269;50.838;12.094;2023-05-29T03:08:26;16.00;32.00
18287;DHT22;9269;50.838;12.094;2023-05-29T03:10:55;16.00;32.80
18287;DHT22;9269;50.838;12.094;2023-05-29T03:13:24;16.00;33.00
18287;DHT22;9269;50.838;12.094;2023-05-29T03:15:52;15.90;32.60
18287;DHT22;9269;50.838;12.094;2023-05-29T03:18:24;16.00;32.80
18287;DHT22;9269;50.838;12.094;2023-05-29T03:20:53;16.00;33.00
18287;DHT22;9269;50.838;12.094;2023-05-29T03:23:23;16.00;33.10
18287;DHT22;9269;50.838;12.094;2023-05-29T03:25:55;15.80;32.50
18287;DHT22;9269;50.838;12.094;2023-05-29T03:28:23;15.90;32.70
18287;DHT22;9269;50.838;12.094;2023-05-29T03:30:52;15.80;32.50
18287;DHT22;9269;50.838;12.094;2023-05-29T03:33:21;15.80;32.60
18287;DHT22;9269;50.838;12.094;2023-05-29T03:35:49;15.80;32.40
18287;DHT22;9269;50.838;12.094;2023-05-29T03:38:18;15.80;32.60
18287;DHT22;9269;50.838;12.094;2023-05-29T03:40:46;15.70;32.50
18287;DHT22;9269;50.838;12.094;2023-05-29T03:43:16;15.70;32.30
18287;DHT22;9269;50.838;12.094;2023-05-29T03:45:44;15.70;32.40
18287;DHT22;9269;50.838;12.094;2023-05-29T03:48:12;15.70;32.40
18287;DHT22;9269;50.838;12.094;2023-05-29T03:50:42;15.60;32.00
18287;DHT22;9269;50.838;12.094;2023-05-29T03:53:10;15.70;32.30
18287;DHT22;9269;50.838;12.094;2023-05-29T03:55:39;15.70;32.10
18287;DHT22;9269;50.838;12.094;2023-05-29T03:58:07;15.70;32.20
18287;DHT22;9269;50.838;12.094;2023-05-29T04:00:38;15.70;32.30
18287;DHT22;9269;50.838;12.094;2023-05-29T04:03:06;15.80;32.50
18287;DHT22;9269;50.838;12.094;2023-05-29T04:05:36;15.80;32.50
18287;DHT22;9269;50.838;12.094;2023-05-29T04:08:04;15.90;32.40
18287;DHT22;9269;50.838;12.094;2023-05-29T04:10:42;15.80;32.60
18287;DHT22;9269;50.838;12.094;2023-05-29T04:13:11;15.90;32.90
18287;DHT22;9269;50.838;12.094;2023-05-29T04:15:40;15.90;32.80
18287;DHT22;9269;50.838;12.094;2023-05-29T04:18:10;15.90;32.50
18287;DHT22;9269;50.838;12.094;2023-05-29T04:20:38;15.90;32.30
18287;DHT22;9269;50.838;12.094;2023-05-29T04:23:07;16.00;32.40
18287;DHT22;9269;50.838;12.094;2023-05-29T04:25:35;16.00;32.60
18287;DHT22;9269;50.838;12.094;2023-05-29T04:28:03;16.00;32.40
18287;DHT22;9269;50.838;12.094;2023-05-29T04:30:33;16.10;32.20
18287;DHT22;9269;50.838;12.094;2023-05-29T04:33:04;16.10;32.60
18287;DHT22;9269;50.838;12.094;2023-05-29T04:35:32;16.10;32.10
18287;DHT22;9269;50.838;12.094;2023-05-29T04:38:02;16.20;31.90
18287;DHT22;9269;50.838;12.094;2023-05-29T04:40:31;16.20;32.50
18287;DHT22;9269;50.838;12.094;2023-05-29T04:43:00;16.30;32.50
18287;DHT22;9269;50.838;12.094;2023-05-29T04:45:29;16.30;32.70
18287;DHT22;9269;50.838;12.094;2023-05-29T04:47:57;16.30;32.40
18287;DHT22;9269;50.838;12.094;2023-05-29T04:50:27;16.40;32.30
18287;DHT22;9269;50.838;12.094;2023-05-29T04:52:58;16.50;32.00
18287;DHT22;9269;50.838;12.094;2023-05-29T04:55:26;16.50;32.10
18287;DHT22;9269;50.838;12.094;2023-05-29T04:57:55;16.60;32.00
18287;DHT22;9269;50.838;12.094;2023-05-29T05:00:25;16.70;31.80
18287;DHT22;9269;50.838;12.094;2023-05-29T05:02:54;16.70;31.80
18287;DHT22;9269;50.838;12.094;2023-05-29T05:05:22;16.80;32.20
18287;DHT22;9269;50.838;12.094;2023-05-29T05:07:52;16.80;31.50
18287;DHT22;9269;50.838;12.094;2023-05-29T05:10:20;16.80;32.10
18287;DHT22;9269;50.838;12.094;2023-05-29T05:12:49;17.00;31.80
18287;DHT22;9269;50.838;12.094;2023-05-29T05:15:17;17.10;32.00
18287;DHT22;9269;50.838;12.094;2023-05-29T05:17:46;17.10;31.90
18287;DHT22;9269;50.838;12.094;2023-05-29T05:20:15;17.20;31.70
18287;DHT22;9269;50.838;12.094;2023-05-29T05:22:43;17.30;31.20
18287;DHT22;9269;50.838;12.094;2023-05-29T05:25:13;17.30;31.50
18287;DHT22;9269;50.838;12.094;2023-05-29T05:27:41;17.40;31.40
18287;DHT22;9269;50.838;12.094;2023-05-29T05:30:11;17.50;31.50
18287;DHT22;9269;50.838;12.094;2023-05-29T05:32:39;17.60;31.00
18287;DHT22;9269;50.838;12.094;2023-05-29T05:35:08;17.60;31.40
18287;DHT22;9269;50.838;12.094;2023-05-29T05:37:38;17.80;31.40
18287;DHT22;9269;50.838;12.094;2023-05-29T05:40:07;17.80;31.60
18287;DHT22;9269;50.838;12.094;2023-05-29T05:42:37;17.90;31.30
18287;DHT22;9269;50.838;12.094;2023-05-29T05:45:07;18.00;31.40
18287;DHT22;9269;50.838;12.094;2023-05-29T05:47:36;18.20;30.50
18287;DHT22;9269;50.838;12.094;2023-05-29T05:50:05;18.20;30.10
18287;DHT22;9269;50.838;12.094;2023-05-29T05:52:34;18.30;30.20
18287;DHT22;9269;50.838;12.094;2023-05-29T05:55:03;18.40;30.00
18287;DHT22;9269;50.838;12.094;2023-05-29T05:57:31;18.40;30.00
18287;DHT22;9269;50.838;12.094;2023-05-29T06:00:02;18.40;30.40
18287;DHT22;9269;50.838;12.094;2023-05-29T06:02:32;18.50;30.00
18287;DHT22;9269;50.838;12.094;2023-05-29T06:05:00;18.50;29.90
18287;DHT22;9269;50.838;12.094;2023-05-29T06:07:30;18.70;29.90
18287;DHT22;9269;50.838;12.094;2023-05-29T06:09:58;18.70;30.20
18287;DHT22;9269;50.838;12.094;2023-05-29T06:12:27;18.80;29.70
18287;DHT22;9269;50.838;12.094;2023-05-29T06:14:56;18.90;30.10
18287;DHT22;9269;50.838;12.094;2023-05-29T06:17:26;19.00;30.00
18287;DHT22;9269;50.838;12.094;2023-05-29T06:19:54;19.10;30.40
18287;DHT22;9269;50.838;12.094;2023-05-29T06:22:23;19.20;29.70
18287;DHT22;9269;50.838;12.094;2023-05-29T06:24:52;19.30;29.60
18287;DHT22;9269;50.838;12.094;2023-05-29T06:27:20;19.40;29.40
18287;DHT22;9269;50.838;12.094;2023-05-29T06:29:52;19.40;29.90
18287;DHT22;9269;50.838;12.094;2023-05-29T06:32:21;19.50;29.70
18287;DHT22;9269;50.838;12.094;2023-05-29T06:34:51;19.50;29.70
18287;DHT22;9269;50.838;12.094;2023-05-29T06:37:19;19.70;30.20
18287;DHT22;9269;50.838;12.094;2023-05-29T06:39:48;19.70;30.20
18287;DHT22;9269;50.838;12.094;2023-05-29T06:42:16;19.80;29.80
18287;DHT22;9269;50.838;12.094;2023-05-29T06:44:45;19.80;29.80
18287;DHT22;9269;50.838;12.094;2023-05-29T06:47:13;19.90;29.90
18287;DHT22;9269;50.838;12.094;2023-05-29T06:49:42;20.10;29.90
18287;DHT22;9269;50.838;12.094;2023-05-29T06:52:11;20.10;29.80
18287;DHT22;9269;50.838;12.094;2023-05-29T06:54:40;20.30;29.80
18287;DHT22;9269;50.838;12.094;2023-05-29T06:57:09;20.50;29.60
18287;DHT22;9269;50.838;12.094;2023-05-29T06:59:38;20.60;30.00
18287;DHT22;9269;50.838;12.094;2023-05-29T07:02:07;20.70;29.60
18287;DHT22;9269;50.838;12.094;2023-05-29T07:04:35;20.60;29.50
18287;DHT22;9269;50.838;12.094;2023-05-29T07:07:04;20.70;29.50
18287;DHT22;9269;50.838;12.094;2023-05-29T07:09:34;20.80;29.50
18287;DHT22;9269;50.838;12.094;2023-05-29T07:12:03;20.90;27.90
18287;DHT22;9269;50.838;12.094;2023-05-29T07:14:31;21.00;27.70
18287;DHT22;9269;50.838;12.094;2023-05-29T07:17:04;21.10;28.10
18287;DHT22;9269;50.838;12.094;2023-05-29T07:19:33;21.10;27.90
18287;DHT22;9269;50.838;12.094;2023-05-29T07:22:02;21.30;27.70
18287;DHT22;9269;50.838;12.094;2023-05-29T07:24:30;21.30;27.60
18287;DHT22;9269;50.838;12.094;2023-05-29T07:27:00;21.30;28.10
18287;DHT22;9269;50.838;12.094;2023-05-29T07:29:28;21.40;27.40
18287;DHT22;9269;50.838;12.094;2023-05-29T07:31:57;21.60;27.60
18287;DHT22;9269;50.838;12.094;2023-05-29T07:34:25;21.60;27.20
18287;DHT22;9269;50.838;12.094;2023-05-29T07:36:59;21.80;27.40
18287;DHT22;9269;50.838;12.094;2023-05-29T07:39:28;21.90;27.30
18287;DHT22;9269;50.838;12.094;2023-05-29T07:41:58;22.00;27.40
18287;DHT22;9269;50.838;12.094;2023-05-29T07:44:28;22.10;27.00
18287;DHT22;9269;50.838;12.094;2023-05-29T07:46:57;22.10;27.20
18287;DHT22;9269;50.838;12.094;2023-05-29T07:49:25;22.30;27.10
18287;DHT22;9269;50.838;12.094;2023-05-29T07:51:54;22.40;26.60
18287;DHT22;9269;50.838;12.094;2023-05-29T07:54:24;22.50;26.90
18287;DHT22;9269;50.838;12.094;2023-05-29T07:56:52;22.60;26.90
18287;DHT22;9269;50.838;12.094;2023-05-29T07:59:22;22.70;26.80
18287;DHT22;9269;50.838;12.094;2023-05-29T08:01:52;22.80;26.40
18287;DHT22;9269;50.838;12.094;2023-05-29T08:04:21;22.90;26.50
18287;DHT22;9269;50.838;12.094;2023-05-29T08:06:49;23.10;26.30
18287;DHT22;9269;50.838;12.094;2023-05-29T08:09:18;23.20;26.50
18287;DHT22;9269;50.838;12.094;2023-05-29T08:11:47;23.30;26.40
18287;DHT22;9269;50.838;12.094;2023-05-29T08:14:16;23.40;26.00
18287;DHT22;9269;50.838;12.094;2023-05-29T08:16:46;23.40;25.80
18287;DHT22;9269;50.838;12.094;2023-05-29T08:19:16;23.60;25.70
18287;DHT22;9269;50.838;12.094;2023-05-29T08:21:44;23.60;25.00
18287;DHT22;9269;50.838;12.094;2023-05-29T08:24:13;23.80;25.10
18287;DHT22;9269;50.838;12.094;2023-05-29T08:26:42;23.90;25.20
18287;DHT22;9269;50.838;12.094;2023-05-29T08:29:11;24.00;24.90
18287;DHT22;9269;50.838;12.094;2023-05-29T08:31:39;24.10;25.30
18287;DHT22;9269;50.838;12.094;2023-05-29T08:34:08;24.20;24.50
18287;DHT22;9269;50.838;12.094;2023-05-29T08:36:39;24.30;24.80
18287;DHT22;9269;50.838;12.094;2023-05-29T08:39:09;24.30;24.30
18287;DHT22;9269;50.838;12.094;2023-05-29T08:41:46;24.40;24.10
18287;DHT22;9269;50.838;12.094;2023-05-29T08:44:21;24.50;23.90
18287;DHT22;9269;50.838;12.094;2023-05-29T08:46:55;24.60;24.10
18287;DHT22;9269;50.838;12.094;2023-05-29T08:49:25;24.70;23.80
18287;DHT22;9269;50.838;12.094;2023-05-29T08:52:03;24.80;23.90
18287;DHT22;9269;50.838;12.094;2023-05-29T08:54:33;24.80;23.60
18287;DHT22;9269;50.838;12.094;2023-05-29T08:57:04;24.90;23.20
18287;DHT22;9269;50.838;12.094;2023-05-29T08:59:33;25.10;23.10
18287;DHT22;9269;50.838;12.094;2023-05-29T09:02:03;25.10;22.80
18287;DHT22;9269;50.838;12.094;2023-05-29T09:04:32;25.10;22.80
18287;DHT22;9269;50.838;12.094;2023-05-29T09:07:02;25.30;22.50
18287;DHT22;9269;50.838;12.094;2023-05-29T09:09:31;25.30;22.20
18287;DHT22;9269;50.838;12.094;2023-05-29T09:12:00;25.40;22.10
18287;DHT22;9269;50.838;12.094;2023-05-29T09:14:33;25.50;21.70
18287;DHT22;9269;50.838;12.094;2023-05-29T09:17:04;25.50;21.50
18287;DHT22;9269;50.838;12.094;2023-05-29T09:19:33;25.60;21.40
18287;DHT22;9269;50.838;12.094;2023-05-29T09:22:05;25.70;21.40
18287;DHT22;9269;50.838;12.094;2023-05-29T09:24:36;25.80;20.70
18287;DHT22;9269;50.838;12.094;2023-05-29T09:27:06;25.80;20.90
18287;DHT22;9269;50.838;12.094;2023-05-29T09:29:38;25.80;20.80
18287;DHT22;9269;50.838;12.094;2023-05-29T09:32:08;25.90;20.30
18287;DHT22;9269;50.838;12.094;2023-05-29T09:34:37;26.00;20.80
18287;DHT22;9269;50.838;12.094;2023-05-29T09:37:08;26.20;20.50
18287;DHT22;9269;50.838;12.094;2023-05-29T09:39:47;26.30;19.80
18287;DHT22;9269;50.838;12.094;2023-05-29T09:42:16;26.40;19.40
18287;DHT22;9269;50.838;12.094;2023-05-29T09:44:46;26.50;18.20
18287;DHT22;9269;50.838;12.094;2023-05-29T09:47:18;26.50;19.50
18287;DHT22;9269;50.838;12.094;2023-05-29T09:49:47;26.60;19.70
18287;DHT22;9269;50.838;12.094;2023-05-29T09:52:21;26.60;19.10
18287;DHT22;9269;50.838;12.094;2023-05-29T09:54:51;26.80;18.90
18287;DHT22;9269;50.838;12.094;2023-05-29T09:57:20;26.90;18.30
18287;DHT22;9269;50.838;12.094;2023-05-29T09:59:52;27.00;19.10
18287;DHT22;9269;50.838;12.094;2023-05-29T10:02:21;27.00;18.60
18287;DHT22;9269;50.838;12.094;2023-05-29T10:04:51;27.10;18.70
18287;DHT22;9269;50.838;12.094;2023-05-29T10:07:26;27.10;18.40
18287;DHT22;9269;50.838;12.094;2023-05-29T10:10:00;27.30;17.70
18287;DHT22;9269;50.838;12.094;2023-05-29T10:12:31;27.30;17.50
18287;DHT22;9269;50.838;12.094;2023-05-29T10:15:01;27.30;17.60
18287;DHT22;9269;50.838;12.094;2023-05-29T10:17:33;27.40;18.00
18287;DHT22;9269;50.838;12.094;2023-05-29T10:20:05;27.60;17.00
18287;DHT22;9269;50.838;12.094;2023-05-29T10:22:39;27.60;16.30
18287;DHT22;9269;50.838;12.094;2023-05-29T10:25:09;27.60;16.50
18287;DHT22;9269;50.838;12.094;2023-05-29T10:27:39;27.70;16.30
18287;DHT22;9269;50.838;12.094;2023-05-29T10:30:14;27.70;16.70
18287;DHT22;9269;50.838;12.094;2023-05-29T10:32:59;27.80;16.70
18287;DHT22;9269;50.838;12.094;2023-05-29T10:35:36;27.80;15.10
18287;DHT22;9269;50.838;12.094;2023-05-29T10:38:11;27.80;14.80
18287;DHT22;9269;50.838;12.094;2023-05-29T10:40:43;27.90;15.00
18287;DHT22;9269;50.838;12.094;2023-05-29T10:43:29;27.90;14.90
18287;DHT22;9269;50.838;12.094;2023-05-29T10:45:59;28.10;14.20
18287;DHT22;9269;50.838;12.094;2023-05-29T10:48:41;28.10;14.10
18287;DHT22;9269;50.838;12.094;2023-05-29T10:51:27;28.10;14.30
18287;DHT22;9269;50.838;12.094;2023-05-29T10:53:57;28.20;14.60
18287;DHT22;9269;50.838;12.094;2023-05-29T10:56:28;28.20;14.40
18287;DHT22;9269;50.838;12.094;2023-05-29T10:58:59;28.30;13.80
18287;DHT22;9269;50.838;12.094;2023-05-29T11:01:30;28.30;14.40
18287;DHT22;9269;50.838;12.094;2023-05-29T11:04:29;28.40;14.50
18287;DHT22;9269;50.838;12.094;2023-05-29T11:07:00;28.40;14.80
18287;DHT22;9269;50.838;12.094;2023-05-29T11:09:34;28.50;14.30
18287;DHT22;9269;50.838;12.094;2023-05-29T11:12:11;28.60;12.50
18287;DHT22;9269;50.838;12.094;2023-05-29T11:14:47;28.60;12.20
18287;DHT22;9269;50.838;12.094;2023-05-29T11:17:29;28.70;12.10
18287;DHT22;9269;50.838;12.094;2023-05-29T11:20:04;28.70;12.30
18287;DHT22;9269;50.838;12.094;2023-05-29T11:22:53;28.70;12.30
18287;DHT22;9269;50.838;12.094;2023-05-29T11:25:26;28.70;11.40
18287;DHT22;9269;50.838;12.094;2023-05-29T11:27:55;28.80;12.30
18287;DHT22;9269;50.838;12.094;2023-05-29T11:30:23;28.80;10.90
18287;DHT22;9269;50.838;12.094;2023-05-29T11:32:52;28.80;10.00
18287;DHT22;9269;50.838;12.094;2023-05-29T11:35:23;28.80;10.90
18287;DHT22;9269;50.838;12.094;2023-05-29T11:37:52;28.90;11.20
18287;DHT22;9269;50.838;12.094;2023-05-29T11:40:22;29.00;11.60
18287;DHT22;9269;50.838;12.094;2023-05-29T11:42:52;29.00;11.60
18287;DHT22;9269;50.838;12.094;2023-05-29T11:45:21;29.10;11.60
18287;DHT22;9269;50.838;12.094;2023-05-29T11:47:52;29.10;11.60
18287;DHT22;9269;50.838;12.094;2023-05-29T11:50:21;29.20;10.90
18287;DHT22;9269;50.838;12.094;2023-05-29T11:52:50;29.40;10.80
18287;DHT22;9269;50.838;12.094;2023-05-29T11:55:20;29.60;10.60
18287;DHT22;9269;50.838;12.094;2023-05-29T11:57:50;29.60;10.60
18287;DHT22;9269;50.838;12.094;2023-05-29T12:00:20;29.60;11.40
18287;DHT22;9269;50.838;12.094;2023-05-29T12:02:49;29.60;11.20
18287;DHT22;9269;50.838;12.094;2023-05-29T12:05:18;29.50;11.30
18287;DHT22;9269;50.838;12.094;2023-05-29T12:07:49;29.50;11.00
18287;DHT22;9269;50.838;12.094;2023-05-29T12:10:19;29.50;10.60
18287;DHT22;9269;50.838;12.094;2023-05-29T12:12:48;29.40;11.10
18287;DHT22;9269;50.838;12.094;2023-05-29T12:15:21;29.20;10.90
18287;DHT22;9269;50.838;12.094;2023-05-29T12:17:50;29.10;11.00
18287;DHT22;9269;50.838;12.094;2023-05-29T12:20:22;29.30;10.50
18287;DHT22;9269;50.838;12.094;2023-05-29T12:22:51;29.30;10.90
18287;DHT22;9269;50.838;12.094;2023-05-29T12:25:20;29.40;10.30
18287;DHT22;9269;50.838;12.094;2023-05-29T12:27:48;29.50;10.40
18287;DHT22;9269;50.838;12.094;2023-05-29T12:30:22;29.40;10.40
18287;DHT22;9269;50.838;12.094;2023-05-29T12:33:00;29.40;10.00
18287;DHT22;9269;50.838;12.094;2023-05-29T12:35:30;29.40;11.00
18287;DHT22;9269;50.838;12.094;2023-05-29T12:38:00;29.50;11.40
18287;DHT22;9269;50.838;12.094;2023-05-29T12:40:31;29.50;11.00
18287;DHT22;9269;50.838;12.094;2023-05-29T12:43:03;29.70;10.50
18287;DHT22;9269;50.838;12.094;2023-05-29T12:45:34;29.70;10.00
18287;DHT22;9269;50.838;12.094;2023-05-29T12:48:03;29.80;9.70
18287;DHT22;9269;50.838;12.094;2023-05-29T12:50:34;29.80;9.80
18287;DHT22;9269;50.838;12.094;2023-05-29T12:53:06;29.80;9.80
18287;DHT22;9269;50.838;12.094;2023-05-29T12:55:36;29.80;10.20
18287;DHT22;9269;50.838;12.094;2023-05-29T12:58:07;29.80;10.50
18287;DHT22;9269;50.838;12.094;2023-05-29T13:00:38;29.80;10.50
18287;DHT22;9269;50.838;12.094;2023-05-29T13:03:10;29.80;10.00
18287;DHT22;9269;50.838;12.094;2023-05-29T13:05:39;29.70;9.90
18287;DHT22;9269;50.838;12.094;2023-05-29T13:08:07;29.70;9.70
18287;DHT22;9269;50.838;12.094;2023-05-29T13:10:37;29.50;10.00
18287;DHT22;9269;50.838;12.094;2023-05-29T13:13:06;29.60;10.30
18287;DHT22;9269;50.838;12.094;2023-05-29T13:15:37;29.70;9.60
18287;DHT22;9269;50.838;12.094;2023-05-29T13:18:07;29.80;8.70
18287;DHT22;9269;50.838;12.094;2023-05-29T13:20:38;29.90;8.90
18287;DHT22;9269;50.838;12.094;2023-05-29T13:23:07;29.80;9.20
18287;DHT22;9269;50.838;12.094;2023-05-29T13:25:35;29.60;9.80
18287;DHT22;9269;50.838;12.094;2023-05-29T13:28:04;29.50;9.70
18287;DHT22;9269;50.838;12.094;2023-05-29T13:30:32;29.50;9.60
18287;DHT22;9269;50.838;12.094;2023-05-29T13:33:03;29.50;9.80
18287;DHT22;9269;50.838;12.094;2023-05-29T13:35:31;29.40;9.40
18287;DHT22;9269;50.838;12.094;2023-05-29T13:37:59;29.40;9.80
18287;DHT22;9269;50.838;12.094;2023-05-29T13:40:28;29.30;10.20
18287;DHT22;9269;50.838;12.094;2023-05-29T13:42:59;29.30;9.50
18287;DHT22;9269;50.838;12.094;2023-05-29T13:45:28;29.40;10.00
18287;DHT22;9269;50.838;12.094;2023-05-29T13:47:56;29.30;9.70
18287;DHT22;9269;50.838;12.094;2023-05-29T13:50:26;29.30;9.70
18287;DHT22;9269;50.838;12.094;2023-05-29T13:52:54;29.30;9.70
18287;DHT22;9269;50.838;12.094;2023-05-29T13:55:23;29.40;9.20
18287;DHT22;9269;50.838;12.094;2023-05-29T13:57:52;29.50;9.50
18287;DHT22;9269;50.838;12.094;2023-05-29T14:00:21;29.40;10.00
18287;DHT22;9269;50.838;12.094;2023-05-29T14:02:50;29.20;10.10
18287;DHT22;9269;50.838;12.094;2023-05-29T14:05:18;29.10;10.40
18287;DHT22;9269;50.838;12.094;2023-05-29T14:07:48;28.80;10.80
18287;DHT22;9269;50.838;12.094;2023-05-29T14:10:20;28.60;11.00
18287;DHT22;9269;50.838;12.094;2023-05-29T14:12:49;28.60;11.10
18287;DHT22;9269;50.838;12.094;2023-05-29T14:15:19;28.40;11.20
18287;DHT22;9269;50.838;12.094;2023-05-29T14:17:48;28.30;11.00
18287;DHT22;9269;50.838;12.094;2023-05-29T14:20:17;28.20;11.70
18287;DHT22;9269;50.838;12.094;2023-05-29T14:22:50;28.10;12.00
18287;DHT22;9269;50.838;12.094;2023-05-29T14:25:19;28.00;11.90
18287;DHT22;9269;50.838;12.094;2023-05-29T14:27:48;27.90;11.90
18287;DHT22;9269;50.838;12.094;2023-05-29T14:30:16;27.80;11.60
18287;DHT22;9269;50.838;12.094;2023-05-29T14:32:45;27.70;12.10
18287;DHT22;9269;50.838;12.094;2023-05-29T14:35:13;27.60;12.60
18287;DHT22;9269;50.838;12.094;2023-05-29T14:37:42;27.60;12.50
18287;DHT22;9269;50.838;12.094;2023-05-29T14:40:12;27.50;12.40
18287;DHT22;9269;50.838;12.094;2023-05-29T14:42:40;27.40;11.80
18287;DHT22;9269;50.838;12.094;2023-05-29T14:45:11;27.50;12.40
18287;DHT22;9269;50.838;12.094;2023-05-29T14:47:40;27.50;12.20
18287;DHT22;9269;50.838;12.094;2023-05-29T14:50:09;27.40;11.70
18287;DHT22;9269;50.838;12.094;2023-05-29T14:52:38;27.30;11.70
18287;DHT22;9269;50.838;12.094;2023-05-29T14:55:07;27.40;12.00
18287;DHT22;9269;50.838;12.094;2023-05-29T14:57:38;27.50;12.10
18287;DHT22;9269;50.838;12.094;2023-05-29T15:00:07;27.60;12.00
18287;DHT22;9269;50.838;12.094;2023-05-29T15:02:36;27.70;12.30
18287;DHT22;9269;50.838;12.094;2023-05-29T15:05:07;27.80;11.80
18287;DHT22;9269;50.838;12.094;2023-05-29T15:07:39;27.80;11.80
18287;DHT22;9269;50.838;12.094;2023-05-29T15:10:08;28.00;11.70
18287;DHT22;9269;50.838;12.094;2023-05-29T15:12:38;28.00;12.00
18287;DHT22;9269;50.838;12.094;2023-05-29T15:15:07;28.00;11.50
18287;DHT22;9269;50.838;12.094;2023-05-29T15:17:35;28.00;12.00
18287;DHT22;9269;50.838;12.094;2023-05-29T15:20:07;28.10;11.60
18287;DHT22;9269;50.838;12.094;2023-05-29T15:22:36;28.10;11.40
18287;DHT22;9269;50.838;12.094;2023-05-29T15:25:05;28.00;11.00
18287;DHT22;9269;50.838;12.094;2023-05-29T15:27:33;27.80;11.40
18287;DHT22;9269;50.838;12.094;2023-05-29T15:30:10;27.70;11.30
18287;DHT22;9269;50.838;12.094;2023-05-29T15:32:40;27.60;11.70
18287;DHT22;9269;50.838;12.094;2023-05-29T15:35:12;27.40;11.70
18287;DHT22;9269;50.838;12.094;2023-05-29T15:37:42;27.50;12.20
18287;DHT22;9269;50.838;12.094;2023-05-29T15:40:12;27.50;11.90
18287;DHT22;9269;50.838;12.094;2023-05-29T15:42:40;27.60;11.50
18287;DHT22;9269;50.838;12.094;2023-05-29T15:45:11;27.60;12.00
18287;DHT22;9269;50.838;12.094;2023-05-29T15:47:42;27.70;11.30
18287;DHT22;9269;50.838;12.094;2023-05-29T15:50:14;27.70;11.10